Hudgins, Virginia
Current Conditions -  °F | °C
As of 11:15 PM on Monday 22 Dec 2014 (Local Time) from KW75 Reporting Station
Overcast Overcast  
Wind Chill: 36°   Ceiling: 300
Heat Index: 40°   Visibility: 1.5mi
Dew Point: 40°   Wind: 6mph
Humidity: 97%   Direction: 330°NNW
Pressure: 30.03"   Gusts: NA
Location:  37.47°N, 76.33°W
Report Text: KW75 230415Z AUTO 33005KT 1 1/2SM OVC003 05/04 A3003 RMK AO1 T00460042
Loading
Personal Weather Stations






























Interactive Weather Map New forecast layout! Learn more

10-Day Weather Forecast

Advertisements
Track Severe Weather on mobile